createdAt,value
2019-02-19T00:00:39.450Z,3.56
2019-02-19T00:03:11.811Z,3.52
2019-02-19T00:05:43.491Z,3.49
2019-02-19T00:08:15.029Z,3.51
2019-02-19T00:10:46.566Z,3.49
2019-02-19T00:13:18.123Z,3.42
2019-02-19T00:15:49.777Z,3.34
2019-02-19T00:18:21.392Z,3.32
2019-02-19T00:20:52.995Z,3.25
2019-02-19T00:23:24.588Z,3.19
2019-02-19T00:25:56.203Z,3.18
2019-02-19T00:28:27.814Z,3.10
2019-02-19T00:30:59.558Z,3.11
2019-02-19T00:33:31.160Z,3.16
2019-02-19T00:36:02.696Z,3.16
2019-02-19T00:38:34.211Z,3.17
2019-02-19T00:41:05.810Z,3.22
2019-02-19T00:43:37.442Z,3.27
2019-02-19T00:46:09.041Z,3.35
2019-02-19T00:48:40.599Z,3.34
2019-02-19T00:51:12.119Z,3.34
2019-02-19T00:53:43.719Z,3.37
2019-02-19T00:56:15.300Z,3.38
2019-02-19T00:58:46.852Z,3.40
2019-02-19T01:01:18.456Z,3.38
2019-02-19T01:03:50.126Z,3.32
2019-02-19T01:06:21.727Z,3.29
2019-02-19T01:08:53.304Z,3.24
2019-02-19T01:11:24.839Z,3.19
2019-02-19T01:13:56.358Z,3.16
2019-02-19T01:16:27.971Z,3.17
2019-02-19T01:18:59.587Z,3.13
2019-02-19T01:21:31.338Z,3.06
2019-02-19T01:24:02.889Z,3.07
2019-02-19T01:26:34.437Z,3.02
2019-02-19T01:29:06.046Z,3.01
2019-02-19T01:31:38.047Z,2.96
2019-02-19T01:34:09.569Z,2.88
2019-02-19T01:36:41.100Z,2.89
2019-02-19T01:39:12.640Z,2.90
2019-02-19T01:41:44.233Z,2.88
2019-02-19T01:44:15.851Z,2.89
2019-02-19T01:46:47.405Z,2.85
2019-02-19T01:49:19.012Z,2.86
2019-02-19T01:51:50.620Z,2.86
2019-02-19T01:54:22.169Z,2.89
2019-02-19T01:56:53.736Z,2.89
2019-02-19T01:59:25.404Z,2.90
2019-02-19T02:01:57.485Z,2.87
2019-02-19T02:04:29.151Z,2.90
2019-02-19T02:07:00.686Z,2.90
2019-02-19T02:09:32.192Z,2.91
2019-02-19T02:12:03.805Z,2.85
2019-02-19T02:14:35.348Z,2.86
2019-02-19T02:17:06.954Z,2.83
2019-02-19T02:19:38.605Z,2.86
2019-02-19T02:22:10.187Z,2.79
2019-02-19T02:24:41.785Z,2.83
2019-02-19T02:27:13.339Z,2.74
2019-02-19T02:29:44.882Z,2.62
2019-02-19T02:32:17.029Z,2.67
2019-02-19T02:34:48.638Z,2.60
2019-02-19T02:37:20.298Z,2.62
2019-02-19T02:39:51.920Z,2.64
2019-02-19T02:42:23.452Z,2.69
2019-02-19T02:44:55.004Z,2.73
2019-02-19T02:47:26.554Z,2.78
2019-02-19T02:49:58.100Z,2.78
2019-02-19T02:52:29.611Z,2.75
2019-02-19T02:55:01.173Z,2.78
2019-02-19T02:57:32.773Z,2.75
2019-02-19T03:00:05.915Z,2.79
2019-02-19T03:02:38.501Z,2.79
2019-02-19T03:05:10.184Z,2.74
2019-02-19T03:07:43.389Z,2.77
2019-02-19T03:10:14.969Z,2.77
2019-02-19T03:12:46.509Z,2.70
2019-02-19T03:15:18.497Z,2.67
2019-02-19T03:17:50.504Z,2.67
2019-02-19T03:20:22.099Z,2.69
2019-02-19T03:22:54.691Z,2.74
2019-02-19T03:25:26.218Z,2.74
2019-02-19T03:27:57.834Z,2.73
2019-02-19T03:30:29.519Z,2.71
2019-02-19T03:33:01.513Z,2.71
2019-02-19T03:35:33.092Z,2.69
2019-02-19T03:38:04.594Z,2.68
2019-02-19T03:40:36.198Z,2.59
2019-02-19T03:43:07.813Z,2.59
2019-02-19T03:45:39.406Z,2.59
2019-02-19T03:48:11.134Z,2.58
2019-02-19T03:50:42.741Z,2.60
2019-02-19T03:53:15.436Z,2.63
2019-02-19T03:55:46.970Z,2.68
2019-02-19T03:58:18.582Z,2.71
2019-02-19T04:00:50.674Z,2.71
2019-02-19T04:03:23.274Z,2.70
2019-02-19T04:05:54.821Z,2.64
2019-02-19T04:08:26.495Z,2.60
2019-02-19T04:10:58.078Z,2.49
2019-02-19T04:13:29.687Z,2.51
2019-02-19T04:16:01.227Z,2.51
2019-02-19T04:18:33.260Z,2.49
2019-02-19T04:21:04.789Z,2.53
2019-02-19T04:23:36.425Z,2.52
2019-02-19T04:26:08.062Z,2.52
2019-02-19T04:28:39.658Z,2.57
2019-02-19T04:31:11.189Z,2.63
2019-02-19T04:33:43.328Z,2.65
2019-02-19T04:36:14.985Z,2.64
2019-02-19T04:38:46.561Z,2.62
2019-02-19T04:41:18.239Z,2.64
2019-02-19T04:43:49.902Z,2.63
2019-02-19T04:46:31.259Z,2.59
2019-02-19T04:48:57.375Z,2.57
2019-02-19T04:51:29.055Z,2.48
2019-02-19T04:54:00.592Z,2.26
2019-02-19T04:56:32.187Z,2.21
2019-02-19T04:59:03.744Z,2.32
2019-02-19T05:01:35.359Z,2.40
2019-02-19T05:04:07.475Z,2.45
2019-02-19T05:06:39.074Z,2.47
2019-02-19T05:09:10.681Z,2.46
2019-02-19T05:11:42.287Z,2.48
2019-02-19T05:14:13.909Z,2.42
2019-02-19T05:16:45.408Z,2.28
2019-02-19T05:19:17.751Z,2.32
2019-02-19T05:21:49.284Z,2.47
2019-02-19T05:24:20.868Z,2.59
2019-02-19T05:26:52.465Z,2.70
2019-02-19T05:29:24.097Z,2.77
2019-02-19T05:31:55.621Z,2.73
2019-02-19T05:34:27.375Z,2.79
2019-02-19T05:36:58.955Z,2.82
2019-02-19T05:39:30.482Z,2.84
2019-02-19T05:42:02.015Z,2.82
2019-02-19T05:44:33.685Z,2.80
2019-02-19T05:47:05.770Z,2.84
2019-02-19T05:49:37.353Z,2.95
2019-02-19T05:52:09.142Z,3.05
2019-02-19T05:54:40.668Z,3.12
2019-02-19T05:57:12.345Z,3.16
2019-02-19T05:59:43.946Z,3.21
2019-02-19T06:02:15.477Z,3.22
2019-02-19T06:04:47.073Z,3.22
2019-02-19T06:07:18.632Z,3.28
2019-02-19T06:09:50.183Z,3.31
2019-02-19T06:12:21.707Z,3.38
2019-02-19T06:14:53.295Z,3.44
2019-02-19T06:17:24.958Z,3.46
2019-02-19T06:19:56.512Z,3.59
2019-02-19T06:22:28.021Z,3.67
2019-02-19T06:25:00.624Z,3.70
2019-02-19T06:27:33.752Z,3.77
2019-02-19T06:30:12.181Z,3.82
2019-02-19T06:32:43.719Z,3.93
2019-02-19T06:35:15.335Z,3.95
2019-02-19T06:37:47.372Z,4.00
2019-02-19T06:40:29.982Z,4.17
2019-02-19T06:43:01.643Z,4.31
2019-02-19T06:45:33.263Z,4.41
2019-02-19T06:48:04.794Z,4.51
2019-02-19T06:50:36.376Z,4.87
2019-02-19T06:53:07.965Z,5.10
2019-02-19T06:55:39.562Z,5.27
2019-02-19T06:58:11.306Z,5.42
2019-02-19T07:00:42.836Z,5.68
2019-02-19T07:03:16.054Z,5.86
2019-02-19T07:05:48.099Z,6.12
2019-02-19T07:08:19.616Z,6.22
2019-02-19T07:10:51.163Z,6.42
2019-02-19T07:13:23.122Z,6.57
2019-02-19T07:15:54.799Z,6.64
2019-02-19T07:18:26.372Z,6.77
2019-02-19T07:20:58.692Z,6.82
2019-02-19T07:23:30.375Z,6.89
2019-02-19T07:26:01.876Z,6.98
2019-02-19T07:28:33.539Z,7.07
2019-02-19T07:31:05.129Z,7.19
2019-02-19T07:33:36.655Z,7.15
2019-02-19T07:36:08.291Z,7.26
2019-02-19T07:38:39.799Z,7.19
2019-02-19T07:41:11.389Z,7.19
2019-02-19T07:43:42.992Z,7.44
2019-02-19T07:46:14.594Z,7.34
2019-02-19T07:48:46.212Z,7.47
2019-02-19T07:51:18.359Z,7.70
2019-02-19T07:53:49.973Z,7.74
2019-02-19T07:56:21.650Z,7.59
2019-02-19T07:58:53.257Z,7.91
2019-02-19T08:01:24.803Z,7.95
2019-02-19T08:03:56.468Z,8.10
2019-02-19T08:06:28.425Z,8.12
2019-02-19T08:09:00.031Z,8.36
2019-02-19T08:11:31.656Z,8.43
2019-02-19T08:14:03.331Z,8.34
2019-02-19T08:16:35.930Z,8.60
2019-02-19T08:19:07.462Z,8.56
2019-02-19T08:21:39.818Z,8.77
2019-02-19T08:24:11.443Z,8.84
2019-02-19T08:26:43.133Z,8.80
2019-02-19T08:29:14.659Z,8.88
2019-02-19T08:31:46.205Z,8.90
2019-02-19T08:34:17.883Z,8.76
2019-02-19T08:36:50.177Z,8.94
2019-02-19T08:39:21.714Z,8.86
2019-02-19T08:41:53.363Z,8.61
2019-02-19T08:44:24.979Z,8.72
2019-02-19T08:46:56.641Z,8.65
2019-02-19T08:49:28.188Z,8.59
2019-02-19T08:51:59.946Z,8.82
2019-02-19T08:54:31.655Z,8.88
2019-02-19T08:57:03.165Z,9.14
2019-02-19T08:59:34.935Z,9.23
2019-02-19T09:02:06.474Z,9.32
2019-02-19T09:04:38.601Z,9.37
2019-02-19T09:07:10.313Z,9.62
2019-02-19T09:09:43.705Z,9.52
2019-02-19T09:12:15.243Z,9.52
2019-02-19T09:14:46.846Z,9.50
2019-02-19T09:17:18.374Z,9.58
2019-02-19T09:19:49.898Z,9.51
2019-02-19T09:22:21.814Z,9.62
2019-02-19T09:24:53.353Z,9.73
2019-02-19T09:27:24.908Z,9.85
2019-02-19T09:29:56.557Z,9.85
2019-02-19T09:32:28.114Z,9.78
2019-02-19T09:34:59.640Z,9.92
2019-02-19T09:37:31.449Z,9.96
2019-02-19T09:40:03.673Z,10.03
2019-02-19T09:42:35.355Z,10.16
2019-02-19T09:45:10.152Z,10.29
2019-02-19T09:47:41.738Z,10.22
2019-02-19T09:50:13.735Z,10.23
2019-02-19T09:52:45.507Z,10.28
2019-02-19T09:55:17.084Z,10.43
2019-02-19T09:57:48.744Z,10.48
2019-02-19T10:00:20.314Z,10.46
2019-02-19T10:02:52.382Z,10.41
2019-02-19T10:05:23.915Z,10.36
2019-02-19T10:07:55.961Z,10.37
2019-02-19T10:10:27.646Z,10.42
2019-02-19T10:12:59.189Z,10.60
2019-02-19T10:15:30.799Z,10.65
2019-02-19T10:18:09.917Z,10.79
2019-02-19T10:20:35.661Z,10.80
2019-02-19T10:23:07.491Z,10.84
2019-02-19T10:25:39.099Z,11.04
2019-02-19T10:28:10.661Z,11.24
2019-02-19T10:30:42.199Z,11.37
2019-02-19T10:33:13.803Z,11.45
2019-02-19T10:35:45.344Z,11.55
2019-02-19T10:38:17.304Z,11.55
2019-02-19T10:40:48.987Z,11.48
2019-02-19T10:43:20.539Z,11.70
2019-02-19T10:45:52.055Z,11.75
2019-02-19T10:48:23.668Z,11.80
2019-02-19T10:50:55.305Z,11.83
2019-02-19T10:53:27.048Z,11.99
2019-02-19T10:55:58.607Z,11.98
2019-02-19T10:58:30.154Z,11.98
2019-02-19T11:01:01.693Z,11.89
2019-02-19T11:03:33.875Z,11.85
2019-02-19T11:06:05.415Z,11.75
2019-02-19T11:08:37.217Z,11.68
2019-02-19T11:11:08.785Z,11.72
2019-02-19T11:13:40.324Z,11.84
2019-02-19T11:16:11.887Z,11.93
2019-02-19T11:18:43.900Z,12.12
2019-02-19T11:21:19.525Z,12.11
2019-02-19T11:23:49.218Z,11.93
2019-02-19T11:26:20.798Z,11.84
2019-02-19T11:28:52.312Z,11.90
2019-02-19T11:31:23.836Z,12.06
2019-02-19T11:33:55.561Z,12.04
2019-02-19T11:36:27.101Z,12.17
2019-02-19T11:38:58.651Z,12.12
2019-02-19T11:41:30.386Z,12.18
2019-02-19T11:44:02.701Z,12.07
2019-02-19T11:46:34.405Z,11.95
2019-02-19T11:49:06.016Z,11.87
2019-02-19T11:51:37.717Z,12.06
2019-02-19T11:54:09.527Z,12.03
2019-02-19T11:56:41.046Z,12.09
2019-02-19T11:59:12.582Z,12.22
2019-02-19T12:01:44.650Z,12.09
2019-02-19T12:04:16.248Z,12.17
2019-02-19T12:06:47.939Z,12.33
2019-02-19T12:09:19.487Z,12.37
2019-02-19T12:11:50.990Z,12.47
2019-02-19T12:14:22.975Z,12.50
2019-02-19T12:16:54.625Z,12.46
2019-02-19T12:19:26.165Z,12.42
2019-02-19T12:21:57.696Z,12.50
2019-02-19T12:24:29.374Z,12.34
2019-02-19T12:27:00.918Z,12.58
2019-02-19T12:29:33.041Z,12.58
2019-02-19T12:32:04.627Z,12.61
2019-02-19T12:34:36.137Z,12.37
2019-02-19T12:37:07.669Z,12.29
2019-02-19T12:39:39.283Z,12.37
2019-02-19T12:42:10.910Z,12.39
2019-02-19T12:44:42.973Z,12.58
2019-02-19T12:47:14.601Z,12.62
2019-02-19T12:49:46.194Z,12.68
2019-02-19T12:52:17.851Z,12.82
2019-02-19T12:54:49.386Z,12.72
2019-02-19T12:57:21.063Z,12.45
2019-02-19T12:59:56.564Z,12.54
2019-02-19T13:02:27.061Z,12.47
2019-02-19T13:04:58.656Z,12.44
2019-02-19T13:07:30.266Z,12.48
2019-02-19T13:10:01.809Z,12.48
2019-02-19T13:12:33.402Z,12.48
2019-02-19T13:15:07.458Z,12.50
2019-02-19T13:17:39.071Z,12.49
2019-02-19T13:20:14.051Z,12.34
2019-02-19T13:22:45.701Z,12.39
2019-02-19T13:25:17.395Z,12.50
2019-02-19T13:27:49.017Z,12.32
2019-02-19T13:30:22.246Z,12.20
2019-02-19T13:32:53.776Z,12.28
2019-02-19T13:35:25.363Z,12.05
2019-02-19T13:37:56.928Z,12.13
2019-02-19T13:40:28.470Z,12.05
2019-02-19T13:43:00.087Z,12.14
2019-02-19T13:45:31.661Z,12.00
2019-02-19T13:48:05.814Z,12.03
2019-02-19T13:50:36.489Z,11.91
2019-02-19T13:53:08.333Z,11.87
2019-02-19T13:55:44.630Z,11.98
2019-02-19T13:58:16.205Z,11.93
2019-02-19T14:00:51.221Z,11.93
2019-02-19T14:03:22.819Z,11.91
2019-02-19T14:05:55.009Z,11.74
2019-02-19T14:08:26.584Z,11.81
2019-02-19T14:10:58.219Z,11.60
2019-02-19T14:13:29.731Z,11.41
2019-02-19T14:16:05.942Z,11.64
2019-02-19T14:18:55.508Z,11.70
2019-02-19T14:21:45.130Z,11.63
2019-02-19T14:24:27.566Z,11.80
2019-02-19T14:26:58.875Z,11.28
2019-02-19T14:29:38.114Z,11.13
2019-02-19T14:32:18.311Z,10.92
2019-02-19T14:34:57.062Z,10.93
2019-02-19T14:37:34.152Z,10.75
2019-02-19T14:40:25.934Z,11.03
2019-02-19T14:42:59.556Z,10.80
2019-02-19T14:45:32.741Z,10.71
2019-02-19T14:48:06.861Z,10.83
2019-02-19T14:50:49.681Z,10.69
2019-02-19T14:53:37.974Z,10.44
2019-02-19T14:56:11.211Z,10.71
2019-02-19T14:58:48.807Z,10.76
2019-02-19T15:01:22.874Z,10.83
2019-02-19T15:04:11.320Z,10.95
2019-02-19T15:06:56.873Z,10.99
2019-02-19T15:09:30.057Z,11.02
2019-02-19T15:12:03.386Z,11.04
2019-02-19T15:14:39.622Z,11.20
2019-02-19T15:17:24.833Z,11.18
2019-02-19T15:20:14.330Z,11.21
2019-02-19T15:22:56.323Z,11.26
2019-02-19T15:25:41.695Z,11.09
2019-02-19T15:28:14.900Z,11.14
2019-02-19T15:30:48.931Z,11.10
2019-02-19T15:33:32.499Z,11.18
2019-02-19T15:36:11.778Z,11.01
2019-02-19T15:38:48.078Z,10.91
2019-02-19T15:41:33.704Z,10.88
2019-02-19T15:44:06.878Z,10.93
2019-02-19T15:46:40.626Z,10.78
2019-02-19T15:49:30.097Z,10.86
2019-02-19T15:52:06.572Z,10.81
2019-02-19T15:54:58.279Z,10.88
2019-02-19T15:57:37.630Z,10.92
2019-02-19T16:00:27.820Z,10.94
2019-02-19T16:03:04.327Z,10.92
2019-02-19T16:05:44.899Z,10.76
2019-02-19T16:08:30.088Z,10.74
2019-02-19T16:11:09.967Z,10.77
2019-02-19T16:14:00.068Z,10.82
2019-02-19T16:16:48.304Z,10.68
2019-02-19T16:19:28.409Z,10.75
2019-02-19T16:22:02.908Z,10.76
2019-02-19T16:24:45.581Z,10.65
2019-02-19T16:27:32.044Z,10.64
2019-02-19T16:30:11.672Z,10.54
2019-02-19T16:32:51.017Z,10.64
2019-02-19T16:35:25.515Z,10.69
2019-02-19T16:37:56.834Z,10.63
2019-02-19T16:40:31.203Z,10.61
2019-02-19T16:43:02.745Z,10.62
2019-02-19T16:45:38.819Z,10.65
2019-02-19T16:48:28.417Z,10.63
2019-02-19T16:51:16.462Z,10.65
2019-02-19T16:54:25.486Z,10.62
2019-02-19T16:57:15.455Z,10.60
2019-02-19T17:00:29.983Z,10.61
2019-02-19T17:03:20.062Z,10.62
2019-02-19T17:09:11.103Z,10.63
2019-02-19T17:12:00.161Z,10.62
2019-02-19T17:14:36.436Z,10.58
2019-02-19T17:17:09.724Z,10.57
2019-02-19T17:19:52.241Z,10.38
2019-02-19T17:22:38.147Z,10.42
2019-02-19T17:25:14.162Z,10.27
2019-02-19T17:28:03.410Z,10.28
2019-02-19T17:30:36.604Z,10.21
2019-02-19T17:33:10.553Z,10.22
2019-02-19T17:36:00.836Z,10.28
2019-02-19T17:38:43.183Z,10.19
2019-02-19T17:41:25.202Z,10.23
2019-02-19T17:44:13.476Z,10.23
2019-02-19T17:47:04.889Z,10.22
2019-02-19T17:49:44.030Z,10.09
2019-02-19T17:52:19.743Z,10.10
2019-02-19T17:54:55.633Z,10.07
2019-02-19T17:57:30.081Z,10.05
2019-02-19T18:00:03.330Z,10.10
2019-02-19T18:02:42.551Z,10.08
2019-02-19T18:05:15.837Z,10.06
2019-02-19T18:07:52.841Z,9.99
2019-02-19T18:10:28.717Z,9.88
2019-02-19T18:13:14.301Z,9.73
2019-02-19T18:15:54.515Z,9.70
2019-02-19T18:18:44.606Z,9.80
2019-02-19T18:21:16.197Z,9.65
2019-02-19T18:23:47.879Z,9.60
2019-02-19T18:26:19.387Z,9.70
2019-02-19T18:28:50.960Z,9.85
2019-02-19T18:31:22.590Z,9.78
2019-02-19T18:33:54.646Z,9.72
2019-02-19T18:36:26.181Z,9.77
2019-02-19T18:38:57.762Z,9.73
2019-02-19T18:41:29.316Z,9.77
2019-02-19T18:44:00.909Z,9.85
2019-02-19T18:46:32.438Z,9.90
2019-02-19T18:49:04.562Z,9.78
2019-02-19T18:51:36.173Z,9.69
2019-02-19T18:54:07.819Z,9.56
2019-02-19T18:56:40.634Z,9.44
2019-02-19T18:59:12.221Z,9.51
2019-02-19T19:01:43.834Z,9.53
2019-02-19T19:04:15.860Z,9.51
2019-02-19T19:06:47.722Z,9.55
2019-02-19T19:09:19.265Z,9.52
2019-02-19T19:11:50.890Z,9.34
2019-02-19T19:14:22.565Z,9.22
2019-02-19T19:16:54.550Z,9.30
2019-02-19T19:19:26.626Z,9.42
2019-02-19T19:21:58.259Z,9.31
2019-02-19T19:24:29.907Z,9.26
2019-02-19T19:27:01.542Z,9.24
2019-02-19T19:29:33.220Z,9.32
2019-02-19T19:32:04.910Z,9.36
2019-02-19T19:34:37.036Z,9.27
2019-02-19T19:37:08.738Z,9.27
2019-02-19T19:39:40.519Z,9.30
2019-02-19T19:42:12.067Z,9.26
2019-02-19T19:44:43.617Z,9.15
2019-02-19T19:47:15.133Z,9.06
2019-02-19T19:49:46.674Z,9.10
2019-02-19T19:52:18.230Z,9.07
2019-02-19T19:54:50.876Z,9.08
2019-02-19T19:57:22.388Z,9.07
2019-02-19T19:59:53.975Z,9.11
2019-02-19T20:02:25.493Z,9.11
2019-02-19T20:04:57.280Z,8.99
2019-02-19T20:07:28.794Z,8.98
2019-02-19T20:10:01.297Z,8.81
2019-02-19T20:12:34.530Z,8.78
2019-02-19T20:15:12.063Z,8.95
2019-02-19T20:17:43.708Z,8.90
2019-02-19T20:20:15.254Z,8.86
2019-02-19T20:22:46.845Z,8.89
2019-02-19T20:25:18.493Z,8.90
2019-02-19T20:27:50.124Z,8.84
2019-02-19T20:30:21.651Z,8.69
2019-02-19T20:32:53.293Z,8.62
2019-02-19T20:35:24.897Z,8.52
2019-02-19T20:37:56.506Z,8.48
2019-02-19T20:40:28.160Z,8.47
2019-02-19T20:42:59.665Z,8.54
2019-02-19T20:45:31.393Z,8.46
2019-02-19T20:48:03.049Z,8.40
2019-02-19T20:50:35.774Z,8.31
2019-02-19T20:53:07.318Z,8.29
2019-02-19T20:55:39.758Z,8.45
2019-02-19T20:58:11.645Z,8.42
2019-02-19T21:00:43.289Z,8.42
2019-02-19T21:03:15.018Z,8.38
2019-02-19T21:05:46.587Z,8.48
2019-02-19T21:08:18.255Z,8.54
2019-02-19T21:10:49.989Z,8.60
2019-02-19T21:13:21.756Z,8.49
2019-02-19T21:15:53.366Z,8.32
2019-02-19T21:18:25.046Z,8.30
2019-02-19T21:20:57.185Z,8.17
2019-02-19T21:23:28.884Z,8.31
2019-02-19T21:26:00.681Z,8.41
2019-02-19T21:28:32.279Z,8.30
2019-02-19T21:31:03.978Z,8.28
2019-02-19T21:33:35.662Z,8.28
2019-02-19T21:36:07.306Z,8.26
2019-02-19T21:38:38.972Z,8.22
2019-02-19T21:41:10.508Z,8.10
2019-02-19T21:43:42.206Z,8.17
2019-02-19T21:46:13.914Z,8.16
2019-02-19T21:48:48.189Z,8.12
2019-02-19T21:51:19.370Z,8.19
2019-02-19T21:53:50.996Z,8.26
2019-02-19T21:56:22.709Z,8.27
2019-02-19T21:58:54.631Z,8.28
2019-02-19T22:01:26.345Z,8.28
2019-02-19T22:03:59.286Z,8.23
2019-02-19T22:06:31.426Z,8.23
2019-02-19T22:09:03.229Z,8.40
2019-02-19T22:11:36.455Z,8.62
2019-02-19T22:14:09.078Z,8.69
2019-02-19T22:16:40.615Z,8.68
2019-02-19T22:19:12.217Z,8.75
2019-02-19T22:21:51.687Z,8.85
2019-02-19T22:24:35.842Z,8.76
2019-02-19T22:27:07.451Z,8.64
2019-02-19T22:29:39.272Z,8.44
2019-02-19T22:32:11.910Z,8.30
2019-02-19T22:34:43.462Z,8.20
2019-02-19T22:37:15.438Z,8.19
2019-02-19T22:39:47.458Z,8.18
2019-02-19T22:42:19.142Z,8.07
2019-02-19T22:44:50.732Z,8.01
2019-02-19T22:47:22.354Z,7.95
2019-02-19T22:49:53.891Z,7.94
2019-02-19T22:52:25.903Z,7.97
2019-02-19T22:55:10.999Z,7.76
2019-02-19T22:57:42.682Z,7.71
2019-02-19T23:00:45.885Z,7.74
2019-02-19T23:03:19.616Z,7.75
2019-02-19T23:05:52.266Z,7.83
2019-02-19T23:08:23.949Z,8.09
2019-02-19T23:10:55.552Z,8.19
2019-02-19T23:13:27.068Z,8.21
2019-02-19T23:15:58.705Z,8.25
2019-02-19T23:18:30.387Z,8.29
2019-02-19T23:21:01.930Z,8.18
2019-02-19T23:23:33.516Z,8.14
2019-02-19T23:26:05.181Z,8.20
2019-02-19T23:28:36.824Z,8.18
2019-02-19T23:31:08.505Z,8.16
2019-02-19T23:33:40.034Z,8.02
2019-02-19T23:36:13.342Z,7.87
2019-02-19T23:38:44.943Z,8.04
2019-02-19T23:41:16.444Z,8.07
2019-02-19T23:43:48.499Z,8.01
2019-02-19T23:46:20.074Z,8.01
2019-02-19T23:48:51.669Z,7.98
2019-02-19T23:51:23.268Z,7.96
2019-02-19T23:53:54.937Z,7.86
2019-02-19T23:56:26.543Z,7.85
2019-02-19T23:58:58.585Z,7.97
